Time;durP1;ratioP1;P1;durP2;ratioP2;P2;SDS_P1;SDS_P2;PMS_P1;PMS_P2;Temp;Humidity;BMP_temperature;BMP_pressure;BME280_temperature;BME280_humidity;BME280_pressure;Samples;Min_cycle;Max_cycle;Signal;HPM_P1;HPM_P2
2021/07/26 00:00:02;;;;;;;27.03;21.97;;;21.90;99.90;;;;;;6129404;23;20521;-55
2021/07/26 00:02:28;;;;;;;29.57;24.50;;;21.90;99.90;;;;;;6129811;23;20418;-49
2021/07/26 00:04:55;;;;;;;25.23;21.80;;;22.00;99.90;;;;;;6129319;23;20418;-51
2021/07/26 00:07:22;;;;;;;30.90;22.17;;;22.00;99.90;;;;;;6129889;23;20423;-55
2021/07/26 00:09:50;;;;;;;24.73;22.13;;;22.00;99.90;;;;;;6129653;23;20457;-51
2021/07/26 00:12:16;;;;;;;24.83;21.83;;;22.00;99.90;;;;;;6127902;23;20742;-52
2021/07/26 00:14:43;;;;;;;21.57;19.00;;;22.00;99.90;;;;;;6127235;23;20414;-49
2021/07/26 00:17:10;;;;;;;29.40;20.83;;;22.10;99.90;;;;;;6127432;23;20703;-48
2021/07/26 00:19:36;;;;;;;25.87;22.33;;;22.10;99.90;;;;;;6126945;23;20473;-48
2021/07/26 00:22:03;;;;;;;25.63;22.33;;;22.10;99.90;;;;;;6126935;23;20447;-52
2021/07/26 00:24:30;;;;;;;23.67;21.17;;;22.10;99.90;;;;;;6126845;23;20477;-50
2021/07/26 00:26:58;;;;;;;22.00;19.70;;;22.10;99.90;;;;;;6125508;23;20415;-52
2021/07/26 00:29:25;;;;;;;23.83;20.60;;;22.10;99.90;;;;;;6127949;23;20391;-52
2021/07/26 00:31:52;;;;;;;26.30;21.10;;;22.10;99.90;;;;;;6127763;23;20383;-53
2021/07/26 00:34:24;;;;;;;26.93;21.53;;;22.10;99.90;;;;;;6127352;23;20757;-52
2021/07/26 00:36:52;;;;;;;24.87;20.33;;;22.10;99.90;;;;;;6127901;23;20426;-50
2021/07/26 00:39:20;;;;;;;24.53;21.93;;;22.10;99.90;;;;;;6128022;23;20471;-52
2021/07/26 00:41:48;;;;;;;23.37;20.70;;;22.10;99.90;;;;;;6127439;23;20442;-53
2021/07/26 00:44:17;;;;;;;28.20;23.10;;;22.10;99.90;;;;;;6127554;23;20418;-49
2021/07/26 00:46:44;;;;;;;26.97;22.30;;;22.10;99.90;;;;;;6127479;23;20395;-51
2021/07/26 00:49:13;;;;;;;26.10;22.67;;;22.10;99.90;;;;;;6127502;23;20400;-49
2021/07/26 00:51:42;;;;;;;24.97;22.00;;;22.10;99.90;;;;;;6128047;23;20706;-54
2021/07/26 00:54:10;;;;;;;27.97;24.00;;;22.00;99.90;;;;;;6128035;23;20438;-53
2021/07/26 00:56:37;;;;;;;23.83;21.33;;;22.00;99.90;;;;;;6128072;23;20485;-51
2021/07/26 00:59:04;;;;;;;33.33;22.80;;;21.90;99.90;;;;;;6127809;23;20865;-54
2021/07/26 01:01:32;;;;;;;26.43;23.13;;;21.90;99.90;;;;;;6127677;23;20442;-52
2021/07/26 01:03:59;;;;;;;25.80;22.67;;;21.90;99.90;;;;;;6127677;23;20406;-54
2021/07/26 01:06:26;;;;;;;26.23;23.37;;;21.90;99.90;;;;;;6127692;23;20426;-51
2021/07/26 01:08:53;;;;;;;25.03;21.50;;;21.90;99.90;;;;;;6127816;23;20716;-55
2021/07/26 01:11:21;;;;;;;27.17;24.27;;;21.90;99.90;;;;;;6127708;23;20477;-52
2021/07/26 01:13:48;;;;;;;28.30;23.70;;;21.80;99.90;;;;;;6127697;23;20854;-52
2021/07/26 01:16:14;;;;;;;29.50;23.73;;;21.80;99.90;;;;;;6127635;23;20470;-50
2021/07/26 01:18:42;;;;;;;26.93;22.90;;;21.70;99.90;;;;;;6127623;23;20407;-52
2021/07/26 01:21:12;;;;;;;28.30;25.30;;;21.70;99.90;;;;;;6127549;23;20451;-54
2021/07/26 01:23:40;;;;;;;31.20;24.50;;;21.70;99.90;;;;;;6127609;23;20411;-51
2021/07/26 01:26:09;;;;;;;30.80;23.90;;;21.70;99.90;;;;;;6127610;23;20478;-51
2021/07/26 01:28:38;;;;;;;27.07;23.93;;;21.70;99.90;;;;;;6127159;23;20504;-48
2021/07/26 01:31:05;;;;;;;31.20;25.70;;;21.70;99.90;;;;;;6127251;23;20410;-52
2021/07/26 01:33:33;;;;;;;30.80;27.50;;;21.70;99.90;;;;;;6127593;23;20478;-53
2021/07/26 01:36:00;;;;;;;28.30;23.17;;;21.70;99.90;;;;;;6127527;23;20411;-52
2021/07/26 01:38:28;;;;;;;25.20;22.43;;;21.80;99.90;;;;;;6127319;23;20406;-50
2021/07/26 01:41:00;;;;;;;29.73;23.60;;;21.80;99.90;;;;;;6127413;23;20450;-51
2021/07/26 01:43:32;;;;;;;27.33;23.70;;;21.80;99.90;;;;;;6127673;23;20433;-47
2021/07/26 01:46:07;;;;;;;33.13;24.27;;;21.80;99.90;;;;;;6128758;23;20857;-51
2021/07/26 01:48:45;;;;;;;28.73;24.40;;;21.80;99.90;;;;;;6129289;23;20390;-52
2021/07/26 01:51:15;;;;;;;25.83;23.03;;;21.80;99.90;;;;;;6128960;23;20464;-51
2021/07/26 01:53:44;;;;;;;27.77;23.50;;;21.80;99.90;;;;;;6128262;23;20442;-52
2021/07/26 01:56:11;;;;;;;28.63;24.00;;;21.80;99.90;;;;;;6128898;23;21034;-54
2021/07/26 01:58:38;;;;;;;27.13;24.33;;;21.70;99.90;;;;;;6128583;23;20402;-52
2021/07/26 02:01:04;;;;;;;28.53;24.93;;;21.70;99.90;;;;;;6128341;23;20449;-50
2021/07/26 02:03:31;;;;;;;30.60;25.63;;;21.70;99.90;;;;;;6128278;23;20893;-53
2021/07/26 02:06:01;;;;;;;27.17;24.20;;;21.60;99.90;;;;;;6128679;23;20403;-54
2021/07/26 02:08:28;;;;;;;26.47;23.57;;;21.60;99.90;;;;;;6128875;23;20403;-48
2021/07/26 02:10:56;;;;;;;26.13;23.10;;;21.60;99.90;;;;;;6128199;23;20925;-53
2021/07/26 02:13:23;;;;;;;26.63;23.37;;;21.60;99.90;;;;;;6128313;23;20924;-53
2021/07/26 02:15:49;;;;;;;27.70;24.27;;;21.60;99.90;;;;;;6128740;23;20814;-50
2021/07/26 02:18:16;;;;;;;28.90;23.23;;;21.60;99.90;;;;;;6128245;23;20461;-53
2021/07/26 02:20:43;;;;;;;26.47;22.70;;;21.60;99.90;;;;;;6128631;23;20410;-48
2021/07/26 02:23:09;;;;;;;26.20;23.60;;;21.70;99.90;;;;;;6128638;23;20407;-48
2021/07/26 02:25:36;;;;;;;28.83;21.60;;;21.70;99.90;;;;;;6128712;23;20403;-46
2021/07/26 02:28:05;;;;;;;27.97;24.47;;;21.70;99.90;;;;;;6128501;23;20434;-48
2021/07/26 02:30:31;;;;;;;26.17;23.37;;;21.70;99.90;;;;;;6128779;23;20417;-47
2021/07/26 02:32:58;;;;;;;28.23;25.33;;;21.70;99.90;;;;;;6128602;23;20409;-54
2021/07/26 02:35:27;;;;;;;26.80;23.30;;;21.80;99.90;;;;;;6128607;23;20423;-50
2021/07/26 02:37:54;;;;;;;28.23;25.13;;;21.80;99.90;;;;;;6128147;23;20407;-52
2021/07/26 02:40:21;;;;;;;28.37;24.90;;;21.70;99.90;;;;;;6128471;23;20403;-50
2021/07/26 02:42:47;;;;;;;25.20;22.70;;;21.70;99.90;;;;;;6127953;23;20505;-52
2021/07/26 02:45:16;;;;;;;31.30;25.57;;;21.60;99.90;;;;;;6128062;23;20730;-53
2021/07/26 02:47:42;;;;;;;29.87;24.90;;;21.60;99.90;;;;;;6128780;23;20498;-45
2021/07/26 02:50:11;;;;;;;38.37;24.03;;;21.60;99.90;;;;;;6128493;23;20717;-54
2021/07/26 02:52:38;;;;;;;26.83;23.93;;;21.60;99.90;;;;;;6128427;23;20446;-48
2021/07/26 02:55:06;;;;;;;28.30;24.90;;;21.50;99.90;;;;;;6127787;23;20465;-52
2021/07/26 02:57:35;;;;;;;27.97;24.80;;;21.50;99.90;;;;;;6128423;23;20406;-49
2021/07/26 03:00:02;;;;;;;42.60;26.00;;;21.50;99.90;;;;;;6127930;23;20422;-53
2021/07/26 03:02:30;;;;;;;36.80;25.30;;;21.40;99.90;;;;;;6128175;23;20462;-51
2021/07/26 03:04:58;;;;;;;29.37;26.40;;;21.40;99.90;;;;;;6128220;23;20411;-50
2021/07/26 03:07:25;;;;;;;28.50;25.23;;;21.30;99.90;;;;;;6128333;23;20406;-52
2021/07/26 03:09:53;;;;;;;29.77;26.60;;;21.30;99.90;;;;;;6128251;23;20421;-51
2021/07/26 03:12:19;;;;;;;26.47;23.77;;;21.30;99.90;;;;;;6128328;23;20850;-52
2021/07/26 03:14:51;;;;;;;27.83;24.93;;;21.30;99.90;;;;;;6128139;23;20407;-48
2021/07/26 03:17:18;;;;;;;29.63;25.47;;;21.40;99.90;;;;;;6127918;23;20403;-47
2021/07/26 03:19:46;;;;;;;26.40;23.70;;;21.40;99.90;;;;;;6128158;23;20449;-49
2021/07/26 03:22:48;;;;;;;28.43;24.00;;;21.40;99.90;;;;;;6128018;23;20442;-50
2021/07/26 03:25:16;;;;;;;27.90;24.63;;;21.40;99.90;;;;;;6128190;23;20485;-45
2021/07/26 03:27:42;;;;;;;29.00;25.00;;;21.40;99.90;;;;;;6127775;23;20429;-46
2021/07/26 03:30:11;;;;;;;27.33;24.43;;;21.50;99.90;;;;;;6127813;23;20890;-46
2021/07/26 03:32:38;;;;;;;32.83;24.17;;;21.50;99.90;;;;;;6128254;23;20710;-45
2021/07/26 03:35:06;;;;;;;27.00;24.10;;;21.50;99.90;;;;;;6128024;23;20414;-53
2021/07/26 03:37:33;;;;;;;28.10;25.40;;;21.50;99.90;;;;;;6127928;23;20434;-50
2021/07/26 03:40:00;;;;;;;27.53;24.57;;;21.50;99.90;;;;;;6127540;23;20407;-52
2021/07/26 03:42:26;;;;;;;28.73;24.63;;;21.50;99.90;;;;;;6127724;23;20442;-50
2021/07/26 03:44:58;;;;;;;31.33;26.27;;;21.50;99.90;;;;;;6127973;23;20861;-52
2021/07/26 03:47:25;;;;;;;29.97;24.90;;;21.50;99.90;;;;;;6127109;23;20426;-54
2021/07/26 03:49:51;;;;;;;27.83;24.30;;;21.50;99.90;;;;;;6127430;23;20894;-50
2021/07/26 03:52:20;;;;;;;29.83;26.27;;;21.50;99.90;;;;;;6127370;23;20489;-53
2021/07/26 03:54:47;;;;;;;25.67;22.97;;;21.50;99.90;;;;;;6128707;23;20417;-53
2021/07/26 03:57:13;;;;;;;30.57;26.20;;;21.50;99.90;;;;;;6127799;23;20391;-52
2021/07/26 03:59:40;;;;;;;27.27;24.33;;;21.50;99.90;;;;;;6127774;23;20474;-49
2021/07/26 04:02:07;;;;;;;27.20;24.50;;;21.50;99.90;;;;;;6127205;23;20446;-49
2021/07/26 04:04:33;;;;;;;27.53;24.60;;;21.50;99.90;;;;;;6127453;23;20885;-48
2021/07/26 04:07:02;;;;;;;29.03;24.40;;;21.60;99.90;;;;;;6127685;23;20477;-47
2021/07/26 04:09:34;;;;;;;27.47;24.43;;;21.60;99.90;;;;;;6127757;23;20772;-54
2021/07/26 04:12:03;;;;;;;30.47;25.77;;;21.60;99.90;;;;;;6127758;23;20406;-50
2021/07/26 04:14:36;;;;;;;30.23;26.90;;;21.70;99.90;;;;;;6127337;23;20426;-51
2021/07/26 04:17:04;;;;;;;25.80;22.93;;;21.70;99.90;;;;;;6127757;23;20407;-48
2021/07/26 04:30:00;;;;;;;27.57;24.70;;;22.00;99.90;;;;;;6098358;23;20365;-52
2021/07/26 04:32:26;;;;;;;27.00;24.30;;;22.00;99.90;;;;;;6186821;23;20725;-52
2021/07/26 04:34:53;;;;;;;27.73;24.90;;;22.00;99.90;;;;;;6186761;23;20443;-53
2021/07/26 04:37:20;;;;;;;28.00;25.10;;;22.00;99.90;;;;;;6186789;23;20683;-52
2021/07/26 04:39:46;;;;;;;25.90;23.13;;;22.00;99.90;;;;;;6186735;23;20741;-53
2021/07/26 04:42:13;;;;;;;26.67;23.90;;;22.10;99.90;;;;;;6186724;23;20959;-50
2021/07/26 04:44:40;;;;;;;30.50;26.10;;;22.10;99.90;;;;;;6186706;23;20405;-52
2021/07/26 04:47:10;;;;;;;26.00;23.20;;;22.10;99.90;;;;;;6186382;23;20408;-52
2021/07/26 04:49:37;;;;;;;26.63;23.73;;;22.10;99.90;;;;;;6186251;23;20421;-52
2021/07/26 04:52:04;;;;;;;28.27;25.17;;;22.00;99.90;;;;;;6186333;23;20401;-53
2021/07/26 04:54:31;;;;;;;30.03;25.00;;;22.10;99.90;;;;;;6186665;23;20459;-52
2021/07/26 04:56:57;;;;;;;28.47;25.53;;;22.20;99.90;;;;;;6186223;23;20475;-53
2021/07/26 04:59:27;;;;;;;35.50;25.60;;;22.20;99.90;;;;;;6186264;23;20405;-51
2021/07/26 05:01:54;;;;;;;26.07;23.17;;;22.30;99.90;;;;;;6186583;23;20436;-49
2021/07/26 05:04:22;;;;;;;30.67;25.97;;;22.40;99.90;;;;;;6186726;23;20677;-51
2021/07/26 05:06:48;;;;;;;27.27;24.27;;;22.50;99.90;;;;;;6186626;23;20760;-52
2021/07/26 05:09:15;;;;;;;30.17;26.37;;;22.50;99.90;;;;;;6186455;23;20855;-53
2021/07/26 05:11:43;;;;;;;27.20;24.30;;;22.50;99.90;;;;;;6186579;23;20922;-53
2021/07/26 05:14:10;;;;;;;34.57;25.73;;;22.50;99.90;;;;;;6186547;23;20421;-50
2021/07/26 05:16:37;;;;;;;27.00;24.30;;;22.50;99.90;;;;;;6186278;23;20412;-49
2021/07/26 05:19:04;;;;;;;29.30;23.47;;;22.50;99.90;;;;;;6187107;23;20404;-45
2021/07/26 05:21:32;;;;;;;30.20;26.07;;;22.50;99.90;;;;;;6188662;23;20404;-47
2021/07/26 05:24:00;;;;;;;28.57;24.07;;;22.60;99.90;;;;;;6188585;23;20658;-49
2021/07/26 05:26:27;;;;;;;29.83;25.33;;;22.60;99.90;;;;;;6188474;23;20471;-53
2021/07/26 05:28:54;;;;;;;27.43;24.50;;;22.60;99.90;;;;;;6188505;23;20747;-50
2021/07/26 05:31:20;;;;;;;33.43;25.40;;;22.60;99.90;;;;;;6187974;23;20437;-53
2021/07/26 05:33:47;;;;;;;26.80;23.93;;;22.60;99.90;;;;;;6188088;23;20891;-48
2021/07/26 05:36:14;;;;;;;28.10;25.20;;;22.60;99.90;;;;;;6188531;23;20427;-53
2021/07/26 05:38:44;;;;;;;25.77;23.00;;;22.60;99.90;;;;;;6188389;23;20408;-52
2021/07/26 05:41:11;;;;;;;28.50;22.13;;;22.60;99.90;;;;;;6188414;23;20409;-54
2021/07/26 05:43:38;;;;;;;24.23;21.70;;;22.60;99.90;;;;;;6188290;23;20444;-52
2021/07/26 05:46:04;;;;;;;22.53;20.13;;;22.60;99.90;;;;;;6188023;23;20409;-54
2021/07/26 05:48:31;;;;;;;25.17;21.87;;;22.60;99.90;;;;;;6188480;23;20475;-53
2021/07/26 05:50:58;;;;;;;23.60;19.97;;;22.60;99.90;;;;;;6188094;23;20444;-46
2021/07/26 05:53:24;;;;;;;24.07;21.60;;;22.70;99.90;;;;;;6187979;23;20413;-47
2021/07/26 05:55:55;;;;;;;23.80;21.30;;;22.60;99.90;;;;;;6187946;23;20408;-51
2021/07/26 05:58:27;;;;;;;28.83;23.27;;;22.70;99.90;;;;;;6188004;23;20860;-47
2021/07/26 06:01:09;;;;;;;26.63;23.97;;;22.70;99.90;;;;;;6188064;23;20420;-48
2021/07/26 06:03:36;;;;;;;24.63;21.93;;;22.80;99.90;;;;;;6188222;23;20431;-51
2021/07/26 06:06:04;;;;;;;29.13;23.07;;;22.80;99.90;;;;;;6187849;23;20478;-49
2021/07/26 06:08:31;;;;;;;30.30;23.83;;;22.90;99.90;;;;;;6187834;23;20452;-51
2021/07/26 06:11:02;;;;;;;33.33;25.20;;;22.90;99.90;;;;;;6192684;23;20492;-54
2021/07/26 06:13:28;;;;;;;28.00;23.57;;;23.00;99.90;;;;;;6200476;23;20390;-50
2021/07/26 06:15:55;;;;;;;28.13;24.80;;;23.10;99.90;;;;;;6189656;23;20417;-54
2021/07/26 06:18:22;;;;;;;35.57;24.57;;;23.20;99.90;;;;;;6189165;23;20405;-50
2021/07/26 06:20:49;;;;;;;30.80;27.37;;;23.30;99.90;;;;;;6191210;23;20471;-50
2021/07/26 06:23:16;;;;;;;27.87;23.50;;;23.50;99.90;;;;;;6189904;23;20441;-52
2021/07/26 06:25:43;;;;;;;25.63;22.87;;;23.60;99.90;;;;;;6191291;23;20404;-50
2021/07/26 06:28:11;;;;;;;24.53;22.03;;;23.70;99.90;;;;;;6189144;23;20404;-48
2021/07/26 06:30:37;;;;;;;22.97;20.53;;;23.80;99.90;;;;;;6186661;23;20763;-52
2021/07/26 06:33:08;;;;;;;25.17;20.07;;;23.90;99.90;;;;;;6190737;23;20404;-53
2021/07/26 06:35:35;;;;;;;25.73;20.53;;;24.00;99.90;;;;;;6190084;23;20389;-45
2021/07/26 06:38:01;;;;;;;23.83;20.67;;;24.00;99.90;;;;;;6189547;23;20471;-47
2021/07/26 06:40:28;;;;;;;22.93;20.57;;;24.10;99.90;;;;;;6196699;23;20815;-44
2021/07/26 06:42:55;;;;;;;25.40;20.57;;;24.20;99.90;;;;;;6193185;23;20509;-44
2021/07/26 06:45:26;;;;;;;23.20;20.77;;;24.20;99.90;;;;;;6189848;23;20393;-43
2021/07/26 06:47:53;;;;;;;24.37;20.00;;;24.30;99.90;;;;;;6189681;23;20831;-47
2021/07/26 06:50:20;;;;;;;23.47;21.07;;;24.40;99.90;;;;;;6190018;23;20720;-45
2021/07/26 06:52:47;;;;;;;21.77;19.40;;;24.40;99.90;;;;;;6189926;23;20671;-42
2021/07/26 06:55:13;;;;;;;21.70;19.30;;;24.50;99.90;;;;;;6190320;23;20741;-45
2021/07/26 06:57:40;;;;;;;21.37;17.57;;;24.70;99.90;;;;;;6190490;23;20486;-46
2021/07/26 07:00:08;;;;;;;19.67;16.80;;;24.80;99.90;;;;;;6188203;23;20716;-44
2021/07/26 07:02:36;;;;;;;20.73;17.93;;;24.90;99.90;;;;;;6188145;23;20443;-48
2021/07/26 07:05:03;;;;;;;23.47;18.43;;;25.10;99.90;;;;;;6188677;23;20420;-42
2021/07/26 07:07:29;;;;;;;20.67;18.50;;;25.20;99.90;;;;;;6188222;23;20427;-44
2021/07/26 07:09:56;;;;;;;18.63;15.93;;;25.30;99.90;;;;;;6188020;23;20393;-47
2021/07/26 07:12:23;;;;;;;19.93;17.87;;;25.30;99.90;;;;;;6189088;23;20408;-43
2021/07/26 07:14:49;;;;;;;30.87;22.30;;;25.40;99.90;;;;;;6188187;23;20429;-46
2021/07/26 07:17:16;;;;;;;32.50;28.93;;;25.50;99.90;;;;;;6187070;23;20412;-45
2021/07/26 07:19:45;;;;;;;27.03;24.10;;;25.60;99.90;;;;;;6187482;23;20400;-45
2021/07/26 07:22:12;;;;;;;19.50;17.60;;;25.70;99.90;;;;;;6187828;23;20443;-46
2021/07/26 07:24:39;;;;;;;20.50;18.40;;;25.70;99.90;;;;;;6187304;23;20867;-43
2021/07/26 07:27:06;;;;;;;20.23;18.10;;;25.70;99.90;;;;;;6185673;23;20404;-43
2021/07/26 07:29:33;;;;;;;17.67;15.83;;;25.70;99.90;;;;;;6187570;23;20404;-48
2021/07/26 07:32:02;;;;;;;18.13;16.33;;;25.70;99.90;;;;;;6188128;23;20433;-47
2021/07/26 07:34:29;;;;;;;16.50;14.77;;;25.70;99.90;;;;;;6187683;23;20412;-47
2021/07/26 07:36:58;;;;;;;19.83;17.20;;;25.80;99.90;;;;;;6186899;23;20389;-47
2021/07/26 07:39:25;;;;;;;19.23;17.33;;;25.90;99.90;;;;;;6187765;23;20408;-42
2021/07/26 07:41:52;;;;;;;18.90;17.00;;;26.10;99.90;;;;;;6187013;23;20467;-47
2021/07/26 07:44:19;;;;;;;21.90;18.00;;;26.30;99.90;;;;;;6186357;23;20436;-42
2021/07/26 07:46:45;;;;;;;21.33;18.63;;;26.30;99.90;;;;;;6186940;23;20393;-43
2021/07/26 07:49:12;;;;;;;19.13;17.10;;;26.40;99.90;;;;;;6187250;23;20408;-42
2021/07/26 07:51:39;;;;;;;19.40;17.40;;;26.50;99.90;;;;;;6187699;23;20420;-49
2021/07/26 07:54:07;;;;;;;18.20;16.30;;;26.50;99.90;;;;;;6186715;23;20455;-43
2021/07/26 07:56:34;;;;;;;18.77;16.87;;;26.50;99.90;;;;;;6186817;23;20658;-49
2021/07/26 07:59:03;;;;;;;17.73;15.90;;;26.60;99.90;;;;;;6186555;23;20401;-44
2021/07/26 08:01:30;;;;;;;33.90;28.97;;;26.60;99.90;;;;;;6186585;23;20951;-45
2021/07/26 08:03:57;;;;;;;19.33;17.10;;;26.80;99.90;;;;;;6187013;23;20440;-45
2021/07/26 08:06:24;;;;;;;18.40;16.40;;;27.10;99.90;;;;;;6187037;23;20405;-45
2021/07/26 08:08:51;;;;;;;17.90;15.10;;;27.50;99.90;;;;;;6187999;23;20728;-45
2021/07/26 08:11:19;;;;;;;15.83;13.87;;;27.80;99.90;;;;;;6186603;23;20420;-44
2021/07/26 08:13:45;;;;;;;20.33;14.17;;;27.90;99.90;;;;;;6187229;23;20463;-47
2021/07/26 08:16:13;;;;;;;18.33;16.40;;;28.20;99.90;;;;;;6188001;23;20412;-47
2021/07/26 08:18:40;;;;;;;83.07;72.07;;;28.50;99.90;;;;;;6187626;23;20685;-44
2021/07/26 08:21:07;;;;;;;57.03;43.83;;;28.60;99.90;;;;;;6188781;23;20408;-45
2021/07/26 08:23:34;;;;;;;18.20;16.40;;;28.70;99.90;;;;;;6187915;23;20432;-44
2021/07/26 08:26:00;;;;;;;17.17;15.37;;;28.70;99.90;;;;;;6187767;23;20405;-43
2021/07/26 08:28:32;;;;;;;16.87;15.27;;;28.40;99.90;;;;;;6187323;23;20471;-41
2021/07/26 08:31:00;;;;;;;17.47;15.80;;;28.30;99.90;;;;;;6186496;23;20437;-42
2021/07/26 08:33:27;;;;;;;21.93;17.30;;;28.10;99.90;;;;;;6186966;23;20447;-41
2021/07/26 08:35:54;;;;;;;19.10;16.33;;;28.00;99.90;;;;;;6186962;23;20428;-42
2021/07/26 08:38:21;;;;;;;19.33;16.97;;;28.00;99.90;;;;;;6186814;23;20832;-46
2021/07/26 08:40:48;;;;;;;18.00;14.47;;;28.20;99.90;;;;;;6187119;23;20416;-44
2021/07/26 08:43:15;;;;;;;17.00;15.30;;;28.70;99.90;;;;;;6186923;23;20444;-44
2021/07/26 08:45:44;;;;;;;17.50;15.30;;;29.40;99.90;;;;;;6186505;23;20496;-43
2021/07/26 08:48:15;;;;;;;17.80;14.77;;;29.80;99.90;;;;;;6187674;23;20439;-44
2021/07/26 08:50:45;;;;;;;15.50;14.20;;;29.90;99.90;;;;;;6190306;23;20393;-49
2021/07/26 08:53:12;;;;;;;13.97;12.60;;;30.20;99.90;;;;;;6185889;23;20413;-48
2021/07/26 08:55:40;;;;;;;15.33;13.73;;;30.40;99.90;;;;;;6186645;23;20404;-48
2021/07/26 08:58:06;;;;;;;14.47;13.17;;;30.50;99.90;;;;;;6187435;23;20394;-46
2021/07/26 09:00:34;;;;;;;13.40;12.20;;;30.70;99.90;;;;;;6186954;23;20429;-46
2021/07/26 09:03:03;;;;;;;15.60;14.20;;;30.90;99.90;;;;;;6187468;23;20437;-48
2021/07/26 09:05:30;;;;;;;13.60;12.33;;;31.40;99.90;;;;;;6187548;23;20432;-48
2021/07/26 09:07:59;;;;;;;12.47;11.17;;;31.80;99.90;;;;;;6187103;23;20412;-47
2021/07/26 09:10:26;;;;;;;14.80;13.40;;;31.90;99.90;;;;;;6187781;23;20659;-45
2021/07/26 09:12:55;;;;;;;15.83;13.43;;;32.10;99.90;;;;;;6187583;23;20412;-47
2021/07/26 09:15:30;;;;;;;13.00;11.83;;;32.20;99.90;;;;;;6187713;23;20409;-49
2021/07/26 09:17:59;;;;;;;13.03;10.90;;;32.40;99.90;;;;;;6187369;23;20426;-49
2021/07/26 09:20:29;;;;;;;13.23;12.03;;;32.50;99.80;;;;;;6186817;23;20424;-50
2021/07/26 09:22:58;;;;;;;13.97;12.67;;;32.60;99.10;;;;;;6186626;23;20397;-49
2021/07/26 09:25:26;;;;;;;12.77;11.50;;;32.40;98.30;;;;;;6186781;23;20712;-45
2021/07/26 09:27:57;;;;;;;14.30;12.60;;;32.20;98.00;;;;;;6186334;23;20416;-46
2021/07/26 09:30:25;;;;;;;13.43;12.13;;;32.50;98.70;;;;;;6187681;23;20471;-46
2021/07/26 09:32:52;;;;;;;13.07;11.83;;;32.90;97.40;;;;;;6189822;23;20389;-51
2021/07/26 09:35:23;;;;;;;13.37;12.17;;;33.00;96.40;;;;;;6189942;23;20483;-46
2021/07/26 09:37:59;;;;;;;13.10;11.03;;;33.20;95.40;;;;;;6189679;23;20370;-46
2021/07/26 09:40:32;;;;;;;11.43;10.37;;;33.50;96.00;;;;;;6190123;23;20384;-49
2021/07/26 09:43:16;;;;;;;13.00;11.67;;;33.70;95.00;;;;;;6188862;23;20428;-46
2021/07/26 09:45:43;;;;;;;13.27;12.07;;;34.60;91.20;;;;;;6187756;23;20389;-48
2021/07/26 09:48:12;;;;;;;13.10;11.87;;;35.20;89.10;;;;;;6187524;23;20412;-44
2021/07/26 09:50:40;;;;;;;18.23;12.20;;;35.90;87.00;;;;;;6187642;23;20681;-43
2021/07/26 09:53:09;;;;;;;12.13;11.23;;;36.50;85.70;;;;;;6188062;23;20404;-46
2021/07/26 09:55:36;;;;;;;12.67;11.57;;;37.00;80.40;;;;;;6187838;23;20408;-45
2021/07/26 09:58:04;;;;;;;14.47;11.40;;;37.60;73.60;;;;;;6187887;23;20412;-48
2021/07/26 10:00:32;;;;;;;12.17;11.17;;;38.10;70.90;;;;;;6188192;23;20475;-50
2021/07/26 10:02:59;;;;;;;12.00;10.90;;;38.50;68.10;;;;;;6186812;23;20498;-45
2021/07/26 10:05:35;;;;;;;12.03;10.67;;;38.90;64.70;;;;;;6192387;23;20393;-48
2021/07/26 10:08:09;;;;;;;10.40;9.50;;;39.30;62.00;;;;;;6209956;23;20484;-49
2021/07/26 10:10:37;;;;;;;11.67;10.60;;;39.50;60.70;;;;;;6210340;23;20404;-45
2021/07/26 10:13:19;;;;;;;11.90;10.27;;;39.40;65.20;;;;;;6207171;23;20405;-46
2021/07/26 10:15:46;;;;;;;11.73;10.50;;;39.20;60.10;;;;;;6206351;23;20400;-42
2021/07/26 10:18:14;;;;;;;10.90;9.90;;;39.00;59.40;;;;;;6207056;23;20790;-46
2021/07/26 10:20:47;;;;;;;11.27;10.13;;;38.80;59.10;;;;;;6204499;23;20423;-45
2021/07/26 10:23:21;;;;;;;11.13;9.13;;;38.70;60.80;;;;;;6206559;23;20389;-45
2021/07/26 10:25:57;;;;;;;10.77;9.77;;;38.40;59.00;;;;;;6206425;23;20522;-46
2021/07/26 10:28:28;;;;;;;9.87;9.00;;;38.30;58.00;;;;;;6207828;23;20383;-46
2021/07/26 10:30:55;;;;;;;15.10;10.80;;;38.20;57.60;;;;;;6201473;23;20433;-48
2021/07/26 10:33:22;;;;;;;12.37;11.17;;;37.70;58.80;;;;;;6200063;23;20400;-44
2021/07/26 10:35:50;;;;;;;12.53;11.37;;;36.90;59.70;;;;;;6199590;23;20409;-47
2021/07/26 10:38:55;;;;;;;12.17;10.87;;;36.50;63.40;;;;;;6200333;23;20404;-46
2021/07/26 10:42:00;;;;;;;14.27;10.07;;;36.30;62.30;;;;;;6198748;23;20393;-44
2021/07/26 10:44:46;;;;;;;10.93;9.87;;;36.10;63.10;;;;;;6077485;23;20444;-46
2021/07/26 10:47:19;;;;;;;9.80;8.90;;;35.90;66.50;;;;;;6191099;23;20519;-48
2021/07/26 10:50:12;;;;;;;11.43;9.60;;;35.90;64.00;;;;;;6199418;23;20476;-43
2021/07/26 10:52:51;;;;;;;12.80;9.50;;;35.80;64.30;;;;;;6200865;23;20393;-46
2021/07/26 10:55:54;;;;;;;11.30;10.30;;;35.70;63.60;;;;;;6190821;23;20400;-45
2021/07/26 10:59:03;;;;;;;11.20;10.20;;;35.50;64.70;;;;;;6182485;23;20425;-48
2021/07/26 11:01:57;;;;;;;9.20;8.37;;;35.10;64.40;;;;;;6186533;23;20452;-46
2021/07/26 11:04:36;;;;;;;10.27;9.27;;;34.90;64.40;;;;;;6187394;23;20425;-48
2021/07/26 11:07:04;;;;;;;10.80;9.60;;;34.80;66.00;;;;;;6187786;23;20765;-51
2021/07/26 11:09:47;;;;;;;9.20;8.27;;;34.70;68.10;;;;;;6186982;23;20402;-52
2021/07/26 11:12:35;;;;;;;9.47;8.17;;;34.60;65.30;;;;;;6187526;23;20392;-50
2021/07/26 11:15:16;;;;;;;8.30;7.60;;;34.50;65.60;;;;;;6187289;23;20460;-51
2021/07/26 11:18:15;;;;;;;9.17;8.00;;;34.30;62.90;;;;;;6187200;23;20415;-49
2021/07/26 11:21:06;;;;;;;12.27;11.00;;;34.30;65.40;;;;;;6187648;23;20793;-51
2021/07/26 11:23:41;;;;;;;7.17;6.50;;;34.00;61.60;;;;;;6187013;23;20839;-51
2021/07/26 11:26:21;;;;;;;7.97;7.37;;;33.90;66.80;;;;;;6187664;23;20396;-51
2021/07/26 11:28:49;;;;;;;8.77;7.87;;;34.00;65.60;;;;;;6187824;23;20397;-49
2021/07/26 11:31:28;;;;;;;10.30;7.80;;;34.00;64.30;;;;;;6187268;23;20907;-54
2021/07/26 11:34:05;;;;;;;8.00;7.30;;;33.90;65.60;;;;;;6187527;23;20404;-52
2021/07/26 11:36:32;;;;;;;8.80;8.00;;;34.00;65.30;;;;;;6186873;23;20743;-51
2021/07/26 11:39:01;;;;;;;8.20;7.40;;;33.90;66.30;;;;;;6187269;23;20700;-45
2021/07/26 11:41:28;;;;;;;8.00;7.30;;;33.90;62.70;;;;;;6187264;23;20417;-54
2021/07/26 11:43:55;;;;;;;7.10;6.50;;;33.80;64.10;;;;;;6187059;23;20784;-45
2021/07/26 11:46:23;;;;;;;8.77;7.87;;;33.80;65.50;;;;;;6187046;23;20433;-45
2021/07/26 11:48:59;;;;;;;7.27;6.67;;;34.00;66.30;;;;;;6188694;23;20709;-45
2021/07/26 11:51:27;;;;;;;7.77;7.07;;;34.30;62.60;;;;;;6187998;23;20389;-47
2021/07/26 11:53:58;;;;;;;10.17;7.63;;;34.10;61.40;;;;;;6187841;23;20420;-48
2021/07/26 11:56:28;;;;;;;8.40;7.60;;;33.70;62.40;;;;;;6188947;23;20452;-49
2021/07/26 11:58:55;;;;;;;8.80;7.90;;;33.20;64.70;;;;;;6186933;23;20401;-52
2021/07/26 12:01:22;;;;;;;8.27;7.57;;;32.70;65.20;;;;;;6186809;23;20452;-48
2021/07/26 12:03:49;;;;;;;9.20;8.40;;;32.30;66.50;;;;;;6186536;23;20405;-50
2021/07/26 12:06:17;;;;;;;9.07;7.80;;;32.00;67.40;;;;;;6187141;23;20729;-52
2021/07/26 12:08:44;;;;;;;13.23;7.50;;;31.70;67.50;;;;;;6187259;23;20405;-53
2021/07/26 12:11:18;;;;;;;8.80;8.00;;;31.60;72.20;;;;;;6186889;23;20674;-50
2021/07/26 12:13:45;;;;;;;9.40;8.50;;;31.70;73.60;;;;;;6187107;23;20495;-49
2021/07/26 12:16:14;;;;;;;8.47;7.67;;;31.80;74.00;;;;;;6186574;23;20420;-49
2021/07/26 12:18:42;;;;;;;9.20;8.30;;;31.70;71.40;;;;;;6186922;23;20397;-50
2021/07/26 12:21:11;;;;;;;7.77;7.07;;;31.70;71.60;;;;;;6186443;23;20824;-53
2021/07/26 12:23:44;;;;;;;8.07;7.20;;;31.80;71.40;;;;;;6186236;23;20867;-52
2021/07/26 12:26:12;;;;;;;9.50;7.70;;;32.00;72.60;;;;;;6186017;23;20828;-51
2021/07/26 12:28:43;;;;;;;9.27;8.47;;;31.90;73.60;;;;;;6186005;23;20867;-48
2021/07/26 12:31:25;;;;;;;8.90;8.03;;;31.90;75.50;;;;;;6186065;23;20429;-49
2021/07/26 12:34:10;;;;;;;7.97;7.27;;;31.90;75.30;;;;;;6186045;23;20416;-51
2021/07/26 12:36:37;;;;;;;8.07;7.23;;;31.90;75.00;;;;;;6186550;23;20397;-48
2021/07/26 12:39:07;;;;;;;8.23;7.23;;;31.90;75.70;;;;;;6186893;23;20488;-50
2021/07/26 12:41:35;;;;;;;9.13;8.30;;;32.00;76.20;;;;;;6186022;23;20406;-52
2021/07/26 12:44:12;;;;;;;14.93;9.50;;;32.00;74.00;;;;;;6184386;23;20419;-53
2021/07/26 12:46:43;;;;;;;10.43;8.23;;;31.80;75.50;;;;;;6187188;23;20408;-51
2021/07/26 12:49:10;;;;;;;12.33;8.57;;;31.60;75.40;;;;;;6186931;23;20496;-52
2021/07/26 12:51:37;;;;;;;9.93;8.27;;;31.40;75.40;;;;;;6186718;23;20689;-48